createdAt,value
2019-03-12T00:01:19.526Z,96063.46
2019-03-12T00:03:46.899Z,96072.44
2019-03-12T00:06:14.219Z,96070.52
2019-03-12T00:08:41.603Z,96064.66
2019-03-12T00:11:08.924Z,96064.66
2019-03-12T00:13:36.239Z,96074.97
2019-03-12T00:16:03.721Z,96088.41
2019-03-12T00:18:31.375Z,96072.78
2019-03-12T00:20:58.739Z,96078.40
2019-03-12T00:23:26.080Z,96078.40
2019-03-12T00:25:53.361Z,96082.91
2019-03-12T00:28:20.699Z,96077.69
2019-03-12T00:30:48.038Z,96066.33
2019-03-12T00:33:15.380Z,96055.17
2019-03-12T00:35:42.719Z,96070.75
2019-03-12T00:38:10.039Z,96060.19
2019-03-12T00:40:37.367Z,96068.72
2019-03-12T00:43:04.686Z,96072.78
2019-03-12T00:45:32.019Z,96079.92
2019-03-12T00:47:59.319Z,96083.80
2019-03-12T00:50:26.761Z,96089.13
2019-03-12T00:52:54.041Z,96083.59
2019-03-12T00:55:21.339Z,96081.89
2019-03-12T00:57:48.679Z,96067.72
2019-03-12T01:00:16.259Z,96070.20
2019-03-12T01:02:43.541Z,96064.66
2019-03-12T01:05:13.444Z,96058.30
2019-03-12T01:07:40.852Z,96066.43
2019-03-12T01:10:09.703Z,96066.43
2019-03-12T01:12:38.240Z,96069.02
2019-03-12T01:15:05.739Z,96080.77
2019-03-12T01:17:33.042Z,96074.92
2019-03-12T01:20:00.415Z,96072.19
2019-03-12T01:22:27.711Z,96072.19
2019-03-12T01:24:55.002Z,96073.48
2019-03-12T01:27:22.359Z,96058.19
2019-03-12T01:29:49.662Z,96071.39
2019-03-12T01:32:17.002Z,96064.45
2019-03-12T01:34:44.320Z,96075.36
2019-03-12T01:37:11.640Z,96077.25
2019-03-12T01:39:38.979Z,96068.58
2019-03-12T01:42:06.312Z,96068.58
2019-03-12T01:44:33.665Z,96075.31
2019-03-12T01:47:00.960Z,96075.31
2019-03-12T01:49:28.244Z,96075.86
2019-03-12T01:51:55.568Z,96064.30
2019-03-12T01:54:22.842Z,96062.32
2019-03-12T01:56:50.180Z,96061.92
2019-03-12T01:59:17.499Z,96076.11
2019-03-12T02:01:44.839Z,96077.88
2019-03-12T02:04:12.149Z,96075.31
2019-03-12T02:06:39.519Z,96070.75
2019-03-12T02:09:07.692Z,96075.30
2019-03-12T02:11:35.083Z,96091.42
2019-03-12T02:14:23.040Z,96098.95
2019-03-12T02:16:50.339Z,96098.95
2019-03-12T02:19:17.659Z,96101.20
2019-03-12T02:21:44.999Z,96089.85
2019-03-12T02:24:12.360Z,96090.30
2019-03-12T02:26:39.619Z,96081.91
2019-03-12T02:29:06.983Z,96086.72
2019-03-12T02:31:34.300Z,96086.72
2019-03-12T02:34:01.648Z,96090.09
2019-03-12T02:36:28.942Z,96090.09
2019-03-12T02:38:56.303Z,96097.93
2019-03-12T02:41:23.642Z,96106.42
2019-03-12T02:43:50.941Z,96103.00
2019-03-12T02:46:18.263Z,96106.02
2019-03-12T02:48:45.564Z,96104.64
2019-03-12T02:51:12.920Z,96112.42
2019-03-12T02:53:40.179Z,96112.42
2019-03-12T02:56:07.500Z,96123.61
2019-03-12T02:58:34.859Z,96130.39
2019-03-12T03:01:02.149Z,96128.70
2019-03-12T03:03:29.459Z,96128.70
2019-03-12T03:06:07.543Z,96137.81
2019-03-12T03:08:34.852Z,96133.76
2019-03-12T03:11:02.731Z,96133.76
2019-03-12T03:13:30.039Z,96127.70
2019-03-12T03:15:57.339Z,96135.34
2019-03-12T03:18:24.740Z,96142.05
2019-03-12T03:20:52.240Z,96142.05
2019-03-12T03:23:19.663Z,96138.37
2019-03-12T03:25:47.293Z,96152.55
2019-03-12T03:28:14.583Z,96160.44
2019-03-12T03:30:41.960Z,96156.78
2019-03-12T03:33:11.355Z,96140.12
2019-03-12T03:35:38.747Z,96151.46
2019-03-12T03:38:06.079Z,96172.09
2019-03-12T03:40:33.396Z,96172.09
2019-03-12T03:43:00.743Z,96170.33
2019-03-12T03:45:28.060Z,96174.66
2019-03-12T03:47:55.388Z,96178.62
2019-03-12T03:50:22.714Z,96179.60
2019-03-12T03:52:50.460Z,96186.73
2019-03-12T03:55:17.782Z,96184.64
2019-03-12T03:57:45.080Z,96186.56
2019-03-12T04:00:15.264Z,96199.91
2019-03-12T04:02:42.607Z,96203.25
2019-03-12T04:05:09.959Z,96200.38
2019-03-12T04:07:37.314Z,96194.68
2019-03-12T04:10:05.533Z,96211.64
2019-03-12T04:12:32.863Z,96211.64
2019-03-12T04:15:00.483Z,96203.59
2019-03-12T04:17:27.925Z,96203.45
2019-03-12T04:19:55.259Z,96205.80
2019-03-12T04:22:22.559Z,96217.11
2019-03-12T04:24:49.861Z,96212.14
2019-03-12T04:27:17.260Z,96210.45
2019-03-12T04:29:44.554Z,96219.67
2019-03-12T04:32:11.860Z,96230.36
2019-03-12T04:34:40.952Z,96224.89
2019-03-12T04:37:08.324Z,96215.34
2019-03-12T04:39:35.623Z,96220.67
2019-03-12T04:42:02.920Z,96231.44
2019-03-12T04:44:30.243Z,96228.63
2019-03-12T04:46:57.559Z,96233.30
2019-03-12T04:49:24.885Z,96235.44
2019-03-12T04:51:52.210Z,96228.53
2019-03-12T04:54:19.518Z,96238.55
2019-03-12T04:56:46.831Z,96234.64
2019-03-12T04:59:14.187Z,96228.26
2019-03-12T05:01:41.479Z,96234.48
2019-03-12T05:04:08.782Z,96249.27
2019-03-12T05:06:36.119Z,96243.35
2019-03-12T05:09:07.376Z,96236.80
2019-03-12T05:11:34.759Z,96236.80
2019-03-12T05:14:24.405Z,96237.13
2019-03-12T05:16:53.500Z,96241.89
2019-03-12T05:19:21.172Z,96238.64
2019-03-12T05:21:48.439Z,96249.31
2019-03-12T05:24:16.062Z,96242.72
2019-03-12T05:26:43.361Z,96236.02
2019-03-12T05:29:10.702Z,96243.21
2019-03-12T05:31:37.951Z,96243.48
2019-03-12T05:34:05.307Z,96241.62
2019-03-12T05:36:32.599Z,96234.02
2019-03-12T05:38:59.943Z,96240.86
2019-03-12T05:41:27.272Z,96240.86
2019-03-12T05:43:54.596Z,96251.13
2019-03-12T05:46:21.961Z,96248.38
2019-03-12T05:48:49.272Z,96252.50
2019-03-12T05:51:16.644Z,96254.97
2019-03-12T05:53:46.931Z,96240.67
2019-03-12T05:56:14.202Z,96254.23
2019-03-12T05:58:41.519Z,96262.11
2019-03-12T06:01:08.819Z,96263.46
2019-03-12T06:03:36.200Z,96261.70
2019-03-12T06:06:03.477Z,96260.84
2019-03-12T06:08:30.962Z,96259.71
2019-03-12T06:10:58.244Z,96261.94
2019-03-12T06:13:25.961Z,96273.94
2019-03-12T06:15:53.393Z,96270.11
2019-03-12T06:18:21.077Z,96268.39
2019-03-12T06:20:48.567Z,96265.98
2019-03-12T06:23:15.905Z,96270.08
2019-03-12T06:25:43.245Z,96268.67
2019-03-12T06:28:10.599Z,96273.79
2019-03-12T06:30:49.489Z,96276.75
2019-03-12T06:33:24.301Z,96278.39
2019-03-12T06:36:00.284Z,96267.95
2019-03-12T06:38:47.397Z,96276.40
2019-03-12T06:41:28.608Z,96275.20
2019-03-12T06:44:13.822Z,96271.89
2019-03-12T06:46:57.996Z,96269.66
2019-03-12T06:49:31.116Z,96278.11
2019-03-12T06:52:07.068Z,96273.26
2019-03-12T06:54:53.949Z,96274.95
2019-03-12T06:57:39.342Z,96279.63
2019-03-12T07:00:28.848Z,96285.53
2019-03-12T07:03:11.636Z,96284.70
2019-03-12T07:05:53.279Z,96283.20
2019-03-12T07:08:40.105Z,96286.14
2019-03-12T07:11:25.360Z,96289.02
2019-03-12T07:14:06.514Z,96293.94
2019-03-12T07:16:51.779Z,96293.64
2019-03-12T07:19:30.307Z,96288.28
2019-03-12T07:22:23.078Z,96295.63
2019-03-12T07:25:15.757Z,96296.91
2019-03-12T07:28:02.640Z,96302.02
2019-03-12T07:30:55.609Z,96299.23
2019-03-12T07:33:42.453Z,96290.84
2019-03-12T07:36:31.948Z,96293.75
2019-03-12T07:39:36.838Z,96286.37
2019-03-12T07:42:41.899Z,96287.19
2019-03-12T07:45:47.016Z,96288.22
2019-03-12T07:48:32.455Z,96280.81
2019-03-12T07:51:18.073Z,96281.50
2019-03-12T07:54:07.513Z,96290.39
2019-03-12T07:56:48.592Z,96285.30
2019-03-12T07:59:38.084Z,96287.23
2019-03-12T08:02:27.597Z,96283.19
2019-03-12T08:05:17.100Z,96278.30
2019-03-12T08:07:57.159Z,96285.84
2019-03-12T08:10:33.806Z,96285.00
2019-03-12T08:13:23.149Z,96285.95
2019-03-12T08:16:03.499Z,96278.48
2019-03-12T08:18:53.201Z,96281.59
2019-03-12T08:21:41.609Z,96277.34
2019-03-12T08:24:32.489Z,96261.23
2019-03-12T08:27:31.229Z,96263.32
2019-03-12T08:30:20.775Z,96250.59
2019-03-12T08:33:08.544Z,96243.18
2019-03-12T08:35:54.300Z,96241.26
2019-03-12T08:38:39.741Z,96236.76
2019-03-12T08:41:35.471Z,96229.33
2019-03-12T08:44:11.440Z,96223.39
2019-03-12T08:47:10.364Z,96218.59
2019-03-12T08:49:58.570Z,96219.41
2019-03-12T08:52:40.160Z,96212.64
2019-03-12T08:55:30.965Z,96214.89
2019-03-12T08:58:13.477Z,96207.05
2019-03-12T09:00:54.958Z,96205.78
2019-03-12T09:03:51.997Z,96203.12
2019-03-12T09:06:35.295Z,96201.72
2019-03-12T09:09:23.353Z,96199.05
2019-03-12T09:12:08.778Z,96198.30
2019-03-12T09:14:51.537Z,96191.56
2019-03-12T09:17:44.422Z,96197.38
2019-03-12T09:20:26.692Z,96188.18
2019-03-12T09:23:12.097Z,96191.00
2019-03-12T09:25:58.929Z,96189.84
2019-03-12T09:28:40.933Z,96187.28
2019-03-12T09:31:26.333Z,96181.84
2019-03-12T09:34:16.321Z,96178.12
2019-03-12T09:37:15.082Z,96179.05
2019-03-12T09:39:50.278Z,96173.72
2019-03-12T09:42:33.344Z,96166.88
2019-03-12T09:45:29.269Z,96164.36
2019-03-12T09:48:15.160Z,96160.64
2019-03-12T09:50:47.779Z,96153.78
2019-03-12T09:53:24.518Z,96148.88
2019-03-12T09:56:14.184Z,96150.50
2019-03-12T09:59:01.035Z,96140.94
2019-03-12T10:01:54.236Z,96135.66
2019-03-12T10:04:41.102Z,96131.27
2019-03-12T10:07:24.448Z,96131.89
2019-03-12T10:10:20.279Z,96129.63
2019-03-12T10:13:11.929Z,96121.45
2019-03-12T10:15:56.500Z,96129.48
2019-03-12T10:18:45.860Z,96130.07
2019-03-12T10:21:32.721Z,96129.03
2019-03-12T10:24:28.987Z,96115.13
2019-03-12T10:27:15.910Z,96107.73
2019-03-12T10:30:05.634Z,96109.41
2019-03-12T10:32:49.679Z,96097.91
2019-03-12T10:35:39.300Z,96087.36
2019-03-12T10:38:57.259Z,96084.41
2019-03-12T10:41:34.099Z,96080.77
2019-03-12T10:44:13.061Z,96078.47
2019-03-12T10:46:45.184Z,96073.82
2019-03-12T10:49:12.529Z,96066.33
2019-03-12T10:51:39.880Z,96060.13
2019-03-12T10:54:07.181Z,96060.89
2019-03-12T10:56:34.489Z,96049.81
2019-03-12T10:59:01.791Z,96037.39
2019-03-12T11:01:29.079Z,96035.69
2019-03-12T11:03:56.403Z,96029.36
2019-03-12T11:06:25.091Z,96029.03
2019-03-12T11:08:52.404Z,96028.09
2019-03-12T11:11:19.784Z,96027.58
2019-03-12T11:13:47.150Z,96021.76
2019-03-12T11:16:14.413Z,96017.11
2019-03-12T11:18:41.856Z,96010.91
2019-03-12T11:21:09.167Z,96002.28
2019-03-12T11:23:36.487Z,95993.63
2019-03-12T11:26:03.839Z,95991.58
2019-03-12T11:28:31.180Z,95982.91
2019-03-12T11:30:58.621Z,95979.15
2019-03-12T11:33:25.944Z,95976.55
2019-03-12T11:35:53.370Z,95971.66
2019-03-12T11:38:20.715Z,95960.67
2019-03-12T11:40:48.120Z,95964.16
2019-03-12T11:43:15.489Z,95955.66
2019-03-12T11:45:42.825Z,95948.94
2019-03-12T11:48:10.433Z,95940.06
2019-03-12T11:50:37.886Z,95935.22
2019-03-12T11:53:05.371Z,95926.13
2019-03-12T11:55:32.789Z,95926.73
2019-03-12T11:58:00.116Z,95919.59
2019-03-12T12:00:34.003Z,95921.67
2019-03-12T12:03:01.319Z,95915.81
2019-03-12T12:05:28.624Z,95910.50
2019-03-12T12:07:56.102Z,95909.16
2019-03-12T12:10:23.511Z,95900.80
2019-03-12T12:12:50.915Z,95894.81
2019-03-12T12:15:18.183Z,95888.30
2019-03-12T12:17:45.566Z,95881.00
2019-03-12T12:20:13.201Z,95870.66
2019-03-12T12:22:40.481Z,95869.17
2019-03-12T12:25:09.401Z,95866.23
2019-03-12T12:27:36.693Z,95857.68
2019-03-12T12:30:04.866Z,95850.98
2019-03-12T12:32:32.154Z,95835.61
2019-03-12T12:34:59.459Z,95835.82
2019-03-12T12:37:26.790Z,95832.69
2019-03-12T12:39:54.086Z,95822.47
2019-03-12T12:42:21.383Z,95818.89
2019-03-12T12:44:48.641Z,95806.91
2019-03-12T12:47:15.994Z,95805.68
2019-03-12T12:49:43.366Z,95802.32
2019-03-12T12:52:10.660Z,95800.26
2019-03-12T12:54:37.986Z,95788.61
2019-03-12T12:57:06.319Z,95789.67
2019-03-12T12:59:34.325Z,95791.19
2019-03-12T13:02:01.578Z,95781.88
2019-03-12T13:04:28.961Z,95775.31
2019-03-12T13:06:56.256Z,95768.88
2019-03-12T13:09:23.563Z,95758.91
2019-03-12T13:11:50.966Z,95754.23
2019-03-12T13:14:18.280Z,95751.89
2019-03-12T13:16:45.592Z,95747.06
2019-03-12T13:19:13.064Z,95743.81
2019-03-12T13:21:40.489Z,95742.20
2019-03-12T13:24:07.851Z,95740.34
2019-03-12T13:26:35.255Z,95727.66
2019-03-12T13:29:02.650Z,95723.41
2019-03-12T13:31:30.070Z,95721.17
2019-03-12T13:33:57.509Z,95710.69
2019-03-12T13:36:24.795Z,95696.48
2019-03-12T13:38:52.128Z,95704.00
2019-03-12T13:41:19.519Z,95692.20
2019-03-12T13:43:47.315Z,95692.52
2019-03-12T13:46:14.613Z,95676.75
2019-03-12T13:48:41.850Z,95679.92
2019-03-12T13:51:09.174Z,95666.55
2019-03-12T13:53:36.461Z,95666.80
2019-03-12T13:56:03.712Z,95657.02
2019-03-12T13:58:31.024Z,95661.47
2019-03-12T14:00:58.288Z,95655.36
2019-03-12T14:03:25.588Z,95652.02
2019-03-12T14:05:52.894Z,95646.07
2019-03-12T14:08:20.209Z,95638.25
2019-03-12T14:10:47.509Z,95629.99
2019-03-12T14:13:14.929Z,95628.88
2019-03-12T14:15:42.281Z,95631.94
2019-03-12T14:18:09.546Z,95622.12
2019-03-12T14:20:49.042Z,95625.37
2019-03-12T14:23:39.745Z,95619.23
2019-03-12T14:26:07.158Z,95611.94
2019-03-12T14:28:34.470Z,95598.58
2019-03-12T14:31:01.946Z,95596.22
2019-03-12T14:33:29.355Z,95595.70
2019-03-12T14:35:56.742Z,95586.41
2019-03-12T14:38:24.258Z,95583.73
2019-03-12T14:40:51.608Z,95585.41
2019-03-12T14:43:18.954Z,95577.34
2019-03-12T14:45:50.215Z,95566.89
2019-03-12T14:48:36.561Z,95556.01
2019-03-12T14:51:05.273Z,95549.92
2019-03-12T14:53:32.653Z,95546.31
2019-03-12T14:56:00.028Z,95541.13
2019-03-12T14:58:27.353Z,95531.97
2019-03-12T15:00:54.690Z,95512.98
2019-03-12T15:03:22.080Z,95512.91
2019-03-12T15:05:49.388Z,95497.05
2019-03-12T15:08:16.803Z,95483.67
2019-03-12T15:10:44.203Z,95485.47
2019-03-12T15:13:11.759Z,95475.10
2019-03-12T15:15:39.130Z,95473.20
2019-03-12T15:18:06.563Z,95466.83
2019-03-12T15:20:34.057Z,95477.62
2019-03-12T15:23:01.438Z,95460.92
2019-03-12T15:25:28.791Z,95458.13
2019-03-12T15:27:56.282Z,95461.03
2019-03-12T15:30:23.659Z,95456.41
2019-03-12T15:32:51.010Z,95448.26
2019-03-12T15:35:18.430Z,95447.23
2019-03-12T15:37:45.785Z,95440.34
2019-03-12T15:40:14.125Z,95436.88
2019-03-12T15:42:41.623Z,95438.41
2019-03-12T15:45:10.243Z,95430.47
2019-03-12T15:47:38.885Z,95428.98
2019-03-12T15:50:09.837Z,95421.94
2019-03-12T15:52:36.838Z,95417.60
2019-03-12T15:55:04.605Z,95418.06
2019-03-12T15:57:32.346Z,95413.61
2019-03-12T15:59:59.919Z,95413.58
2019-03-12T16:02:27.563Z,95409.70
2019-03-12T16:04:55.123Z,95412.82
2019-03-12T16:07:22.785Z,95400.38
2019-03-12T16:12:50.387Z,95388.42
2019-03-12T16:15:18.006Z,95384.11
2019-03-12T16:17:45.582Z,95385.84
2019-03-12T16:20:13.740Z,95387.36
2019-03-12T16:22:41.825Z,95381.80
2019-03-12T16:25:09.765Z,95384.77
2019-03-12T16:27:37.360Z,95387.06
2019-03-12T16:30:05.452Z,95378.31
2019-03-12T16:32:35.310Z,95373.91
2019-03-12T16:35:02.842Z,95370.48
2019-03-12T16:37:30.461Z,95363.32
2019-03-12T16:39:58.081Z,95360.72
2019-03-12T16:42:34.557Z,95358.98
2019-03-12T16:44:55.204Z,95357.28
2019-03-12T16:47:22.761Z,95355.14
2019-03-12T16:49:50.588Z,95347.42
2019-03-12T16:52:18.163Z,95352.43
2019-03-12T16:54:45.926Z,95340.19
2019-03-12T16:57:13.551Z,95348.45
2019-03-12T16:59:43.218Z,95340.01
2019-03-12T17:02:11.326Z,95337.48
2019-03-12T17:04:39.426Z,95343.42
2019-03-12T17:07:07.201Z,95342.41
2019-03-12T17:09:34.987Z,95332.28
2019-03-12T17:12:03.407Z,95339.82
2019-03-12T17:14:38.853Z,95334.88
2019-03-12T17:17:00.648Z,95333.87
2019-03-12T17:19:28.295Z,95329.94
2019-03-12T17:21:56.038Z,95336.65
2019-03-12T17:24:24.025Z,95328.28
2019-03-12T17:26:51.990Z,95333.50
2019-03-12T17:29:19.664Z,95327.69
2019-03-12T17:31:47.472Z,95322.33
2019-03-12T17:34:15.390Z,95322.15
2019-03-12T17:36:43.134Z,95322.89
2019-03-12T17:39:10.868Z,95323.81
2019-03-12T17:41:38.581Z,95324.38
2019-03-12T17:44:06.409Z,95322.61
2019-03-12T17:46:34.222Z,95323.81
2019-03-12T17:49:01.955Z,95322.52
2019-03-12T17:51:29.639Z,95317.56
2019-03-12T17:53:57.302Z,95308.89
2019-03-12T17:56:25.010Z,95308.94
2019-03-12T17:58:52.704Z,95316.77
2019-03-12T18:01:20.331Z,95309.70
2019-03-12T18:03:48.029Z,95303.45
2019-03-12T18:06:15.655Z,95308.75
2019-03-12T18:08:43.294Z,95305.49
2019-03-12T18:11:11.100Z,95302.56
2019-03-12T18:13:38.858Z,95302.17
2019-03-12T18:16:06.695Z,95307.61
2019-03-12T18:18:34.521Z,95298.53
2019-03-12T18:21:02.490Z,95290.84
2019-03-12T18:23:30.149Z,95293.48
2019-03-12T18:25:58.428Z,95295.25
2019-03-12T18:28:26.243Z,95297.21
2019-03-12T18:30:53.983Z,95298.06
2019-03-12T18:33:22.013Z,95307.13
2019-03-12T18:35:49.814Z,95300.06
2019-03-12T18:38:17.526Z,95305.20
2019-03-12T18:40:45.870Z,95309.57
2019-03-12T18:43:14.992Z,95300.69
2019-03-12T18:45:45.793Z,95297.94
2019-03-12T18:48:13.998Z,95309.22
2019-03-12T18:50:42.702Z,95295.77
2019-03-12T18:53:10.449Z,95305.25
2019-03-12T18:55:52.834Z,95304.71
2019-03-12T18:58:20.623Z,95303.73
2019-03-12T19:00:49.262Z,95292.70
2019-03-12T19:03:17.273Z,95289.18
2019-03-12T19:05:45.362Z,95289.43
2019-03-12T19:08:13.072Z,95291.47
2019-03-12T19:10:40.841Z,95280.32
2019-03-12T19:13:08.927Z,95290.15
2019-03-12T19:15:36.835Z,95293.89
2019-03-12T19:18:08.763Z,95285.47
2019-03-12T19:20:36.530Z,95276.86
2019-03-12T19:23:04.376Z,95267.64
2019-03-12T19:25:32.843Z,95256.69
2019-03-12T19:28:00.798Z,95259.31
2019-03-12T19:30:28.628Z,95257.06
2019-03-12T19:33:01.970Z,95250.93
2019-03-12T19:35:29.886Z,95245.33
2019-03-12T19:37:57.779Z,95250.33
2019-03-12T19:40:26.059Z,95246.75
2019-03-12T19:42:53.881Z,95240.98
2019-03-12T19:45:21.731Z,95246.92
2019-03-12T19:47:49.687Z,95239.59
2019-03-12T19:50:17.676Z,95245.28
2019-03-12T19:52:45.637Z,95227.69
2019-03-12T19:55:19.622Z,95219.80
2019-03-12T19:57:47.695Z,95214.22
2019-03-12T20:00:16.889Z,95202.84
2019-03-12T20:02:47.151Z,95208.03
2019-03-12T20:05:15.331Z,95205.81
2019-03-12T20:07:43.407Z,95204.48
2019-03-12T20:10:45.658Z,95205.63
2019-03-12T20:13:42.828Z,95196.78
2019-03-12T20:17:09.553Z,95187.86
2019-03-12T20:20:12.033Z,95187.28
2019-03-12T20:23:16.176Z,95185.61
2019-03-12T20:26:20.647Z,95185.34
2019-03-12T20:29:53.229Z,95169.73
2019-03-12T20:33:09.111Z,95164.80
2019-03-12T20:36:22.699Z,95156.98
2019-03-12T20:39:20.236Z,95152.08
2019-03-12T20:42:31.863Z,95150.92
2019-03-12T20:45:28.254Z,95133.83
2019-03-12T20:48:33.324Z,95141.98
2019-03-12T20:51:45.400Z,95144.25
2019-03-12T20:54:51.730Z,95141.85
2019-03-12T20:58:08.387Z,95125.59
2019-03-12T21:01:39.087Z,95130.52
2019-03-12T21:04:42.751Z,95124.79
2019-03-12T21:07:50.861Z,95124.67
2019-03-12T21:10:55.536Z,95112.62
2019-03-12T21:14:38.459Z,95107.44
2019-03-12T21:17:48.731Z,95117.13
2019-03-12T21:20:52.546Z,95093.41
2019-03-12T21:23:52.635Z,95083.13
2019-03-12T21:27:03.062Z,95073.27
2019-03-12T21:29:49.205Z,95079.52
2019-03-12T21:32:17.951Z,95078.70
2019-03-12T21:34:46.002Z,95072.10
2019-03-12T21:37:13.885Z,95064.81
2019-03-12T21:39:54.472Z,95060.95
2019-03-12T21:42:11.440Z,95057.70
2019-03-12T21:44:39.183Z,95058.98
2019-03-12T21:47:07.073Z,95067.03
2019-03-12T21:49:34.894Z,95054.05
2019-03-12T21:52:02.723Z,95052.89
2019-03-12T21:54:30.585Z,95052.61
2019-03-12T21:56:58.244Z,95048.26
2019-03-12T21:59:25.583Z,95045.64
2019-03-12T22:01:53.056Z,95029.97
2019-03-12T22:04:20.453Z,95037.88
2019-03-12T22:06:47.832Z,95023.92
2019-03-12T22:09:15.236Z,95026.62
2019-03-12T22:11:42.717Z,95015.53
2019-03-12T22:14:10.082Z,95001.68
2019-03-12T22:16:37.401Z,94991.18
2019-03-12T22:19:04.783Z,94984.78
2019-03-12T22:21:41.034Z,94985.41
2019-03-12T22:24:08.448Z,94983.45
2019-03-12T22:26:35.815Z,94978.22
2019-03-12T22:29:03.270Z,94979.83
2019-03-12T22:31:30.591Z,94982.92
2019-03-12T22:33:57.897Z,94969.64
2019-03-12T22:36:25.200Z,94963.41
2019-03-12T22:38:52.527Z,94964.71
2019-03-12T22:41:19.821Z,94958.98
2019-03-12T22:43:47.189Z,94957.69
2019-03-12T22:46:14.526Z,94955.46
2019-03-12T22:48:42.333Z,94943.88
2019-03-12T22:51:09.662Z,94953.13
2019-03-12T22:53:39.461Z,94945.59
2019-03-12T22:56:06.820Z,94931.51
2019-03-12T22:58:34.144Z,94931.32
2019-03-12T23:01:01.461Z,94925.53
2019-03-12T23:03:28.802Z,94919.38
2019-03-12T23:05:56.162Z,94906.28
2019-03-12T23:08:23.529Z,94903.44
2019-03-12T23:10:50.900Z,94901.08
2019-03-12T23:13:18.571Z,94891.05
2019-03-12T23:15:45.863Z,94891.54
2019-03-12T23:18:13.187Z,94888.99
2019-03-12T23:20:40.481Z,94876.74
2019-03-12T23:23:07.825Z,94885.09
2019-03-12T23:25:35.122Z,94887.59
2019-03-12T23:28:02.427Z,94876.17
2019-03-12T23:30:29.732Z,94880.05
2019-03-12T23:32:57.021Z,94879.53
2019-03-12T23:35:24.280Z,94870.38
2019-03-12T23:37:51.600Z,94872.53
2019-03-12T23:40:19.001Z,94864.73
2019-03-12T23:42:46.359Z,94864.37
2019-03-12T23:45:14.461Z,94864.86
2019-03-12T23:47:41.965Z,94854.93
2019-03-12T23:50:09.445Z,94852.62
2019-03-12T23:52:36.904Z,94855.61
2019-03-12T23:55:04.351Z,94841.51
2019-03-12T23:57:31.662Z,94835.50
2019-03-12T23:59:58.981Z,94840.26
